createdAt,value
2019-05-28T00:01:26.340Z,20.45
2019-05-28T00:03:54.907Z,24.32
2019-05-28T00:06:23.655Z,22.82
2019-05-28T00:08:52.223Z,22.13
2019-05-28T00:11:20.786Z,21.20
2019-05-28T00:13:49.367Z,21.45
2019-05-28T00:16:17.936Z,22.30
2019-05-28T00:18:46.511Z,22.95
2019-05-28T00:21:15.083Z,21.33
2019-05-28T00:23:43.668Z,22.27
2019-05-28T00:26:12.231Z,21.20
2019-05-28T00:28:40.813Z,22.30
2019-05-28T00:31:09.386Z,20.05
2019-05-28T00:33:37.954Z,22.55
2019-05-28T00:36:06.537Z,21.93
2019-05-28T00:38:35.104Z,22.27
2019-05-28T00:41:03.778Z,22.77
2019-05-28T00:43:32.352Z,22.62
2019-05-28T00:46:00.923Z,21.52
2019-05-28T00:48:29.491Z,22.58
2019-05-28T00:50:58.086Z,23.90
2019-05-28T00:53:26.644Z,22.82
2019-05-28T00:55:55.747Z,22.70
2019-05-28T00:58:24.593Z,23.05
2019-05-28T01:00:53.395Z,22.05
2019-05-28T01:03:21.981Z,22.15
2019-05-28T01:05:50.539Z,23.07
2019-05-28T01:08:19.197Z,23.05
2019-05-28T01:10:47.760Z,22.42
2019-05-28T01:13:16.327Z,24.45
2019-05-28T01:15:44.891Z,23.15
2019-05-28T01:18:13.453Z,20.60
2019-05-28T01:20:42.589Z,24.18
2019-05-28T01:23:11.151Z,23.65
2019-05-28T01:25:39.986Z,21.95
2019-05-28T01:28:08.551Z,22.75
2019-05-28T01:30:53.500Z,20.82
2019-05-28T01:33:07.347Z,22.67
2019-05-28T01:35:35.940Z,20.95
2019-05-28T01:38:04.586Z,22.07
2019-05-28T01:40:33.230Z,20.37
2019-05-28T01:43:01.792Z,23.55
2019-05-28T01:45:30.500Z,20.37
2019-05-28T01:47:59.084Z,19.37
2019-05-28T01:50:27.659Z,18.80
2019-05-28T01:52:56.303Z,19.48
2019-05-28T01:55:24.868Z,18.37
2019-05-28T01:57:53.436Z,18.20
2019-05-28T02:00:22.636Z,21.70
2019-05-28T02:02:51.243Z,18.25
2019-05-28T02:05:20.221Z,19.85
2019-05-28T02:07:48.782Z,17.60
2019-05-28T02:10:17.959Z,19.35
2019-05-28T02:12:46.534Z,18.73
2019-05-28T02:15:15.860Z,20.72
2019-05-28T02:17:44.423Z,19.87
2019-05-28T02:20:13.733Z,18.52
2019-05-28T02:22:42.302Z,16.80
2019-05-28T02:25:11.603Z,18.23
2019-05-28T02:27:40.171Z,17.37
2019-05-28T02:30:10.897Z,18.23
2019-05-28T02:32:39.545Z,19.52
2019-05-28T02:35:08.744Z,17.32
2019-05-28T02:37:37.401Z,27.98
2019-05-28T02:40:07.756Z,18.48
2019-05-28T02:42:36.394Z,18.50
2019-05-28T02:45:09.761Z,17.65
2019-05-28T02:47:38.583Z,19.90
2019-05-28T02:50:09.497Z,18.80
2019-05-28T02:52:39.198Z,18.70
2019-05-28T02:55:09.970Z,19.15
2019-05-28T02:57:40.747Z,19.62
2019-05-28T03:00:12.404Z,19.37
2019-05-28T03:02:44.056Z,21.82
2019-05-28T03:05:12.971Z,18.90
2019-05-28T03:07:43.752Z,19.12
2019-05-28T03:10:12.568Z,18.92
2019-05-28T03:12:41.138Z,18.07
2019-05-28T03:15:10.049Z,18.25
2019-05-28T03:17:40.622Z,20.05
2019-05-28T03:20:09.541Z,19.37
2019-05-28T03:22:39.539Z,19.62
2019-05-28T03:25:08.639Z,19.70
2019-05-28T03:27:37.292Z,19.00
2019-05-28T03:30:07.753Z,19.48
2019-05-28T03:32:36.336Z,19.90
2019-05-28T03:35:06.648Z,19.75
2019-05-28T03:37:36.962Z,19.52
2019-05-28T03:40:08.852Z,19.02
2019-05-28T03:42:37.429Z,20.45
2019-05-28T03:45:07.442Z,19.60
2019-05-28T03:47:36.020Z,22.58
2019-05-28T03:50:07.088Z,19.45
2019-05-28T03:52:35.654Z,19.30
2019-05-28T03:55:07.034Z,19.10
2019-05-28T03:57:35.602Z,18.48
2019-05-28T04:00:05.428Z,18.40
2019-05-28T04:02:33.980Z,19.82
2019-05-28T04:05:02.574Z,20.50
2019-05-28T04:07:31.162Z,19.27
2019-05-28T04:09:59.728Z,21.07
2019-05-28T04:12:28.364Z,18.35
2019-05-28T04:14:57.003Z,20.35
2019-05-28T04:17:25.576Z,20.52
2019-05-28T04:19:54.151Z,20.55
2019-05-28T04:22:22.728Z,20.30
2019-05-28T04:24:51.375Z,22.02
2019-05-28T04:27:20.226Z,21.45
2019-05-28T04:29:48.803Z,20.17
2019-05-28T04:32:17.396Z,20.37
2019-05-28T04:34:45.951Z,21.33
2019-05-28T04:37:14.527Z,21.60
2019-05-28T04:39:43.097Z,19.95
2019-05-28T04:42:11.717Z,20.68
2019-05-28T04:44:40.345Z,20.95
2019-05-28T04:47:09.108Z,20.57
2019-05-28T04:49:37.865Z,22.50
2019-05-28T04:52:06.472Z,22.90
2019-05-28T04:54:35.065Z,20.72
2019-05-28T04:57:03.731Z,23.05
2019-05-28T04:59:32.332Z,21.70
2019-05-28T05:02:00.905Z,21.62
2019-05-28T05:04:29.492Z,21.85
2019-05-28T05:06:58.060Z,19.48
2019-05-28T05:09:26.913Z,19.82
2019-05-28T05:11:55.502Z,19.77
2019-05-28T05:14:24.052Z,19.15
2019-05-28T05:16:52.633Z,17.60
2019-05-28T05:19:21.251Z,18.67
2019-05-28T05:21:49.830Z,15.83
2019-05-28T05:24:18.417Z,17.37
2019-05-28T05:26:47.002Z,15.75
2019-05-28T05:29:15.552Z,16.90
2019-05-28T05:31:44.190Z,19.95
2019-05-28T05:34:12.775Z,20.68
2019-05-28T05:36:41.388Z,17.77
2019-05-28T05:39:10.017Z,15.70
2019-05-28T05:41:38.569Z,16.10
2019-05-28T05:44:07.166Z,15.30
2019-05-28T05:46:35.704Z,13.48
2019-05-28T05:49:04.419Z,12.95
2019-05-28T05:51:32.989Z,14.83
2019-05-28T05:54:01.551Z,16.40
2019-05-28T05:56:30.113Z,14.30
2019-05-28T05:58:58.687Z,13.43
2019-05-28T06:01:27.281Z,13.40
2019-05-28T06:03:55.856Z,13.70
2019-05-28T06:06:24.412Z,12.50
2019-05-28T06:08:52.972Z,13.18
2019-05-28T06:11:21.535Z,14.05
2019-05-28T06:13:50.174Z,13.93
2019-05-28T06:16:18.755Z,13.15
2019-05-28T06:18:47.339Z,13.53
2019-05-28T06:21:18.866Z,12.60
2019-05-28T06:23:46.148Z,14.45
2019-05-28T06:26:14.828Z,12.37
2019-05-28T06:28:43.357Z,15.00
2019-05-28T06:31:12.261Z,13.90
2019-05-28T06:33:55.636Z,16.23
2019-05-28T06:36:11.228Z,12.85
2019-05-28T06:38:39.768Z,15.08
2019-05-28T06:41:08.327Z,17.62
2019-05-28T06:43:36.902Z,16.60
2019-05-28T06:46:05.468Z,17.40
2019-05-28T06:48:34.028Z,16.15
2019-05-28T06:51:02.636Z,15.60
2019-05-28T06:53:31.195Z,16.10
2019-05-28T06:55:59.773Z,16.57
2019-05-28T06:58:38.524Z,15.00
2019-05-28T07:00:58.710Z,15.90
2019-05-28T07:03:27.253Z,14.93
2019-05-28T07:06:06.432Z,15.23
2019-05-28T07:08:26.035Z,15.90
2019-05-28T07:10:58.084Z,17.40
2019-05-28T07:13:24.874Z,14.70
2019-05-28T07:15:53.452Z,16.10
2019-05-28T07:18:22.022Z,16.23
2019-05-28T07:20:50.583Z,15.85
2019-05-28T07:23:19.160Z,16.80
2019-05-28T07:25:47.741Z,13.95
2019-05-28T07:28:16.314Z,16.70
2019-05-28T07:30:44.886Z,15.43
2019-05-28T07:33:13.471Z,15.08
2019-05-28T07:35:45.803Z,16.90
2019-05-28T07:38:12.238Z,17.50
2019-05-28T07:40:40.807Z,14.75
2019-05-28T07:43:09.409Z,17.12
2019-05-28T07:45:37.983Z,18.87
2019-05-28T07:48:06.541Z,15.50
2019-05-28T07:50:35.142Z,16.87
2019-05-28T07:53:03.889Z,16.50
2019-05-28T07:55:32.566Z,18.25
2019-05-28T07:58:01.136Z,18.05
2019-05-28T08:00:40.611Z,15.48
2019-05-28T08:03:09.981Z,15.53
2019-05-28T08:05:38.748Z,16.00
2019-05-28T08:08:09.702Z,16.30
2019-05-28T08:10:38.511Z,16.17
2019-05-28T08:13:07.226Z,18.02
2019-05-28T08:15:37.322Z,15.48
2019-05-28T08:18:06.165Z,16.97
2019-05-28T08:20:35.075Z,17.87
2019-05-28T08:23:03.791Z,18.40
2019-05-28T08:25:45.983Z,18.77
2019-05-28T08:28:18.801Z,15.65
2019-05-28T08:30:33.273Z,15.43
2019-05-28T08:33:01.832Z,14.90
2019-05-28T08:35:30.400Z,15.70
2019-05-28T08:37:58.969Z,17.02
2019-05-28T08:40:27.951Z,19.45
2019-05-28T08:42:56.623Z,16.55
2019-05-28T08:45:25.253Z,16.23
2019-05-28T08:47:53.814Z,16.57
2019-05-28T08:50:34.021Z,17.15
2019-05-28T08:52:52.680Z,18.67
2019-05-28T08:55:21.235Z,19.30
2019-05-28T08:57:49.818Z,21.95
2019-05-28T09:00:44.097Z,17.65
2019-05-28T09:03:13.677Z,20.37
2019-05-28T09:05:42.315Z,20.97
2019-05-28T09:08:10.885Z,18.20
2019-05-28T09:10:39.471Z,19.73
2019-05-28T09:13:08.033Z,22.05
2019-05-28T09:15:36.873Z,21.95
2019-05-28T09:18:05.805Z,22.17
2019-05-28T09:20:34.829Z,27.40
2019-05-28T09:23:03.478Z,26.15
2019-05-28T09:25:32.031Z,23.02
2019-05-28T09:28:00.641Z,26.45
2019-05-28T09:30:29.429Z,24.27
2019-05-28T09:32:58.022Z,27.55
2019-05-28T09:35:43.406Z,26.80
2019-05-28T09:37:56.785Z,29.82
2019-05-28T09:40:26.224Z,32.15
2019-05-28T09:42:54.783Z,27.20
2019-05-28T09:45:23.667Z,27.27
2019-05-28T09:47:55.135Z,30.85
2019-05-28T09:50:30.472Z,29.57
2019-05-28T09:52:55.000Z,33.45
2019-05-28T09:55:23.251Z,36.38
2019-05-28T09:57:51.830Z,33.40
2019-05-28T10:00:23.045Z,33.88
2019-05-28T10:02:52.037Z,34.75
2019-05-28T10:05:21.347Z,39.48
2019-05-28T10:07:50.452Z,36.80
2019-05-28T10:10:19.559Z,36.65
2019-05-28T10:12:48.134Z,38.15
2019-05-28T10:15:17.445Z,35.95
2019-05-28T10:17:46.025Z,33.10
2019-05-28T10:20:15.540Z,35.65
2019-05-28T10:22:44.172Z,34.43
2019-05-28T10:25:14.924Z,35.73
2019-05-28T10:27:59.250Z,32.05
2019-05-28T10:30:14.441Z,34.63
2019-05-28T10:32:43.003Z,35.33
2019-05-28T10:35:11.907Z,34.30
2019-05-28T10:37:40.551Z,33.60
2019-05-28T10:40:11.041Z,32.38
2019-05-28T10:42:39.599Z,34.53
2019-05-28T10:45:10.621Z,34.55
2019-05-28T10:47:40.856Z,31.55
2019-05-28T10:50:09.884Z,34.08
2019-05-28T10:52:38.456Z,34.10
2019-05-28T10:55:07.773Z,36.00
2019-05-28T10:57:36.343Z,35.17
2019-05-28T11:00:08.942Z,29.18
2019-05-28T11:02:37.457Z,29.92
2019-05-28T11:05:08.335Z,18.25
2019-05-28T11:07:36.903Z,16.12
2019-05-28T11:10:22.518Z,16.15
2019-05-28T11:12:38.003Z,16.27
2019-05-28T11:15:08.018Z,15.58
2019-05-28T11:17:36.754Z,14.78
2019-05-28T11:20:08.585Z,15.58
2019-05-28T11:22:37.215Z,17.30
2019-05-28T11:25:07.424Z,16.02
2019-05-28T11:27:36.139Z,17.62
2019-05-28T11:30:08.023Z,15.30
2019-05-28T11:32:36.603Z,15.40
2019-05-28T11:35:07.313Z,15.83
2019-05-28T11:37:35.816Z,17.35
2019-05-28T11:40:08.023Z,13.65
2019-05-28T11:42:36.596Z,16.12
2019-05-28T11:45:07.987Z,12.03
2019-05-28T11:47:36.875Z,17.50
2019-05-28T11:50:09.914Z,14.83
2019-05-28T11:52:38.479Z,16.32
2019-05-28T11:55:12.674Z,13.88
2019-05-28T12:00:09.354Z,20.45
2019-05-28T12:02:37.928Z,15.45
2019-05-28T12:05:08.335Z,15.78
2019-05-28T12:07:36.904Z,12.40
2019-05-28T12:10:06.913Z,15.08
2019-05-28T12:12:37.111Z,16.65
2019-05-28T12:15:10.919Z,15.45
2019-05-28T12:17:43.413Z,15.75
2019-05-28T12:20:11.043Z,11.60
2019-05-28T12:22:39.745Z,15.18
2019-05-28T12:25:09.760Z,13.38
2019-05-28T12:27:38.318Z,14.35
2019-05-28T12:30:09.534Z,12.65
2019-05-28T12:32:39.039Z,14.58
2019-05-28T12:35:26.665Z,14.85
2019-05-28T12:37:47.957Z,13.15
2019-05-28T12:40:09.351Z,11.15
2019-05-28T12:42:37.921Z,12.68
2019-05-28T12:45:13.530Z,11.90
2019-05-28T12:47:42.238Z,10.78
2019-05-28T12:50:19.892Z,11.93
2019-05-28T12:52:46.749Z,12.95
2019-05-28T12:55:14.308Z,11.33
2019-05-28T12:57:42.925Z,13.05
2019-05-28T13:00:13.525Z,12.68
2019-05-28T13:02:42.107Z,14.18
2019-05-28T13:05:13.761Z,11.38
2019-05-28T13:07:42.332Z,13.15
2019-05-28T13:10:12.740Z,12.30
2019-05-28T13:12:41.336Z,10.45
2019-05-28T13:15:10.448Z,13.48
2019-05-28T13:17:39.061Z,14.15
2019-05-28T13:20:08.822Z,14.47
2019-05-28T13:22:37.534Z,15.13
2019-05-28T13:25:07.313Z,16.87
2019-05-28T13:27:36.022Z,16.02
2019-05-28T13:30:08.035Z,13.93
2019-05-28T13:32:36.980Z,13.75
2019-05-28T13:35:10.145Z,11.43
2019-05-28T13:37:38.768Z,8.63
2019-05-28T13:40:08.878Z,10.28
2019-05-28T13:42:37.470Z,8.38
2019-05-28T13:45:07.676Z,8.53
2019-05-28T13:47:36.402Z,9.55
2019-05-28T13:50:06.503Z,8.03
2019-05-28T13:52:35.075Z,6.53
2019-05-28T13:55:05.542Z,9.20
2019-05-28T13:57:38.746Z,13.05
2019-05-28T14:00:10.182Z,8.30
2019-05-28T14:02:38.814Z,10.35
2019-05-28T14:05:08.241Z,11.43
2019-05-28T14:07:37.899Z,12.50
2019-05-28T14:10:08.288Z,10.15
2019-05-28T14:12:36.850Z,14.05
2019-05-28T14:15:06.652Z,13.93
2019-05-28T14:17:35.220Z,13.98
2019-05-28T14:20:09.520Z,15.75
2019-05-28T14:22:38.294Z,14.18
2019-05-28T14:25:08.696Z,15.85
2019-05-28T14:27:37.356Z,14.13
2019-05-28T14:30:08.646Z,20.12
2019-05-28T14:32:37.229Z,16.77
2019-05-28T14:35:07.520Z,12.82
2019-05-28T14:37:36.208Z,13.20
2019-05-28T14:40:06.989Z,15.53
2019-05-28T14:42:35.561Z,17.73
2019-05-28T14:45:06.167Z,17.92
2019-05-28T14:47:34.758Z,14.20
2019-05-28T14:50:04.660Z,13.72
2019-05-28T14:52:33.228Z,16.93
2019-05-28T14:55:01.824Z,20.68
2019-05-28T14:57:30.374Z,15.63
2019-05-28T14:59:58.932Z,17.60
2019-05-28T15:02:27.522Z,14.20
2019-05-28T15:04:56.390Z,20.10
2019-05-28T15:07:24.932Z,12.50
2019-05-28T15:09:53.510Z,8.75
2019-05-28T15:12:41.434Z,9.58
2019-05-28T15:15:12.477Z,9.33
2019-05-28T15:17:41.041Z,8.08
2019-05-28T15:20:11.840Z,6.50
2019-05-28T15:22:40.415Z,6.28
2019-05-28T15:25:09.559Z,7.75
2019-05-28T15:27:38.183Z,7.45
2019-05-28T15:30:11.861Z,7.65
2019-05-28T15:32:40.432Z,7.50
2019-05-28T15:35:10.426Z,5.30
2019-05-28T15:37:39.099Z,9.85
2019-05-28T15:40:08.506Z,8.18
2019-05-28T15:42:37.178Z,6.95
2019-05-28T15:45:08.074Z,7.33
2019-05-28T15:47:37.765Z,6.42
2019-05-28T15:50:08.279Z,5.25
2019-05-28T15:52:37.157Z,6.05
2019-05-28T15:55:07.659Z,7.00
2019-05-28T15:57:36.191Z,7.83
2019-05-28T16:00:13.849Z,12.75
2019-05-28T16:02:42.400Z,11.83
2019-05-28T16:05:11.447Z,10.10
2019-05-28T16:07:40.013Z,7.30
2019-05-28T16:10:09.134Z,29.45
2019-05-28T16:12:37.703Z,14.23
2019-05-28T16:15:11.132Z,7.75
2019-05-28T16:17:39.669Z,12.80
2019-05-28T16:20:09.286Z,11.15
2019-05-28T16:22:38.040Z,9.85
2019-05-28T16:25:10.617Z,11.93
2019-05-28T16:27:39.193Z,9.68
2019-05-28T16:30:08.787Z,7.83
2019-05-28T16:32:37.361Z,10.43
2019-05-28T16:35:06.963Z,11.65
2019-05-28T16:37:35.735Z,15.72
2019-05-28T16:40:14.818Z,12.85
2019-05-28T16:42:37.716Z,8.87
2019-05-28T16:45:07.154Z,10.95
2019-05-28T16:47:35.735Z,13.43
2019-05-28T16:50:05.529Z,12.15
2019-05-28T16:52:34.215Z,14.90
2019-05-28T16:55:02.929Z,13.45
2019-05-28T16:57:31.488Z,10.78
2019-05-28T17:00:00.067Z,9.93
2019-05-28T17:02:28.628Z,14.13
2019-05-28T17:04:57.387Z,10.60
2019-05-28T17:07:25.924Z,13.20
2019-05-28T17:09:54.756Z,13.18
2019-05-28T17:12:23.314Z,14.38
2019-05-28T17:14:51.905Z,11.45
2019-05-28T17:17:20.468Z,11.28
2019-05-28T17:19:49.071Z,13.93
2019-05-28T17:22:17.625Z,12.30
2019-05-28T17:24:46.291Z,7.83
2019-05-28T17:27:14.833Z,10.15
2019-05-28T17:29:43.383Z,11.33
2019-05-28T17:32:11.960Z,8.88
2019-05-28T17:34:40.842Z,12.10
2019-05-28T17:37:09.399Z,13.60
2019-05-28T17:39:37.984Z,11.63
2019-05-28T17:42:06.539Z,13.85
2019-05-28T17:44:35.114Z,12.05
2019-05-28T17:47:03.682Z,11.20
2019-05-28T17:49:32.268Z,12.28
2019-05-28T17:52:00.846Z,11.97
2019-05-28T17:54:29.510Z,13.70
2019-05-28T17:56:58.064Z,10.80
2019-05-28T17:59:26.648Z,12.15
2019-05-28T18:01:55.232Z,14.05
2019-05-28T18:04:23.807Z,11.35
2019-05-28T18:06:52.384Z,12.05
2019-05-28T18:09:20.962Z,11.57
2019-05-28T18:11:49.519Z,15.45
2019-05-28T18:14:18.094Z,11.57
2019-05-28T18:16:46.667Z,11.90
2019-05-28T18:19:15.227Z,13.28
2019-05-28T18:21:43.791Z,12.50
2019-05-28T18:24:12.392Z,13.48
2019-05-28T18:26:40.993Z,14.90
2019-05-28T18:29:09.987Z,11.95
2019-05-28T18:31:38.514Z,13.10
2019-05-28T18:34:07.189Z,10.90
2019-05-28T18:36:35.895Z,13.35
2019-05-28T18:39:06.395Z,12.47
2019-05-28T18:41:35.661Z,14.95
2019-05-28T18:44:05.293Z,12.35
2019-05-28T18:46:34.258Z,11.93
2019-05-28T18:49:03.352Z,13.18
2019-05-28T18:51:34.395Z,15.58
2019-05-28T18:54:02.968Z,12.40
2019-05-28T18:56:31.865Z,13.25
2019-05-28T18:59:00.866Z,15.28
2019-05-28T19:01:29.561Z,12.90
2019-05-28T19:03:58.747Z,10.82
2019-05-28T19:06:47.192Z,15.18
2019-05-28T19:09:16.296Z,11.53
2019-05-28T19:11:45.483Z,10.98
2019-05-28T19:14:14.577Z,9.98
2019-05-28T19:16:43.679Z,16.42
2019-05-28T19:19:13.388Z,12.15
2019-05-28T19:21:42.478Z,12.75
2019-05-28T19:24:11.328Z,12.30
2019-05-28T19:26:40.019Z,10.82
2019-05-28T19:29:09.293Z,7.53
2019-05-28T19:31:38.861Z,11.60
2019-05-28T19:34:08.977Z,12.53
2019-05-28T19:36:38.547Z,10.32
2019-05-28T19:39:09.174Z,7.62
2019-05-28T19:41:52.311Z,9.75
2019-05-28T19:44:08.961Z,8.55
2019-05-28T19:46:38.142Z,9.50
2019-05-28T19:49:07.682Z,6.97
2019-05-28T19:51:36.485Z,12.40
2019-05-28T19:54:06.597Z,9.58
2019-05-28T19:56:35.644Z,11.00
2019-05-28T19:59:12.521Z,7.28
2019-05-28T20:01:38.054Z,8.50
2019-05-28T20:04:07.178Z,7.65
2019-05-28T20:06:36.216Z,9.10
2019-05-28T20:09:07.628Z,7.67
2019-05-28T20:11:36.432Z,8.80
2019-05-28T20:14:05.730Z,8.00
2019-05-28T20:16:34.747Z,9.53
2019-05-28T20:19:05.094Z,10.28
2019-05-28T20:21:33.826Z,11.20
2019-05-28T20:24:02.583Z,8.53
2019-05-28T20:26:31.109Z,5.92
2019-05-28T20:29:08.537Z,9.35
2019-05-28T20:31:34.247Z,6.95
2019-05-28T20:34:05.256Z,13.18
2019-05-28T20:36:34.423Z,7.67
2019-05-28T20:39:03.645Z,7.28
2019-05-28T20:41:32.295Z,6.40
2019-05-28T20:44:00.698Z,8.00
2019-05-28T20:46:29.142Z,8.68
2019-05-28T20:48:57.549Z,9.35
2019-05-28T20:51:25.980Z,4.62
2019-05-28T20:53:54.397Z,5.78
2019-05-28T20:56:22.807Z,6.78
2019-05-28T20:58:51.756Z,6.03
2019-05-28T21:01:20.313Z,7.42
2019-05-28T21:03:49.737Z,5.85
2019-05-28T21:06:18.316Z,8.13
2019-05-28T21:08:47.976Z,4.97
2019-05-28T21:11:16.622Z,7.53
2019-05-28T21:13:45.022Z,7.53
2019-05-28T21:16:13.440Z,7.97
2019-05-28T21:18:41.881Z,6.67
2019-05-28T21:21:10.297Z,5.12
2019-05-28T21:23:38.719Z,7.28
2019-05-28T21:26:07.164Z,6.37
2019-05-28T21:28:35.575Z,7.35
2019-05-28T21:31:03.997Z,8.20
2019-05-28T21:33:32.425Z,5.30
2019-05-28T21:36:01.472Z,9.03
2019-05-28T21:38:30.059Z,6.15
2019-05-28T21:40:59.766Z,10.08
2019-05-28T21:43:28.349Z,4.80
2019-05-28T21:45:58.054Z,7.55
2019-05-28T21:48:26.824Z,9.60
2019-05-28T21:50:55.229Z,6.95
2019-05-28T21:53:23.649Z,7.22
2019-05-28T21:55:53.079Z,8.73
2019-05-28T21:58:21.641Z,10.35
2019-05-28T22:00:55.976Z,11.60
2019-05-28T22:03:24.495Z,9.05
2019-05-28T22:05:52.913Z,8.45
2019-05-28T22:08:21.361Z,14.78
2019-05-28T22:10:49.768Z,13.18
2019-05-28T22:13:22.228Z,13.90
2019-05-28T22:15:48.489Z,11.43
2019-05-28T22:18:16.936Z,9.73
2019-05-28T22:20:45.387Z,10.82
2019-05-28T22:23:13.799Z,11.15
2019-05-28T22:25:42.217Z,12.88
2019-05-28T22:28:10.691Z,10.93
2019-05-28T22:30:39.373Z,10.18
2019-05-28T22:33:08.428Z,15.68
2019-05-28T22:35:37.039Z,10.93
2019-05-28T22:38:05.550Z,13.25
2019-05-28T22:40:34.006Z,13.20
2019-05-28T22:43:03.574Z,15.43
2019-05-28T22:45:32.386Z,12.45
2019-05-28T22:48:02.200Z,11.22
2019-05-28T22:50:31.001Z,14.15
2019-05-28T22:52:59.858Z,16.90
2019-05-28T22:55:28.432Z,11.93
2019-05-28T22:57:58.083Z,15.28
2019-05-28T23:00:26.765Z,17.32
2019-05-28T23:02:55.167Z,18.23
2019-05-28T23:05:23.592Z,16.37
2019-05-28T23:07:52.298Z,17.82
2019-05-28T23:10:20.903Z,17.82
2019-05-28T23:12:49.322Z,18.27
2019-05-28T23:15:18.448Z,15.35
2019-05-28T23:17:46.858Z,14.43
2019-05-28T23:20:15.727Z,16.00
2019-05-28T23:22:44.188Z,15.20
2019-05-28T23:25:14.294Z,16.15
2019-05-28T23:27:42.745Z,18.98
2019-05-28T23:30:24.380Z,16.95
2019-05-28T23:32:41.976Z,17.75
2019-05-28T23:35:10.937Z,17.00
2019-05-28T23:37:39.351Z,19.82
2019-05-28T23:40:09.604Z,18.27
2019-05-28T23:42:38.184Z,18.25
2019-05-28T23:45:07.793Z,18.10
2019-05-28T23:47:36.342Z,20.92
2019-05-28T23:50:06.758Z,17.48
2019-05-28T23:52:35.275Z,19.02
2019-05-28T23:55:05.743Z,17.42
2019-05-28T23:57:34.216Z,16.50
